Time;durP1;ratioP1;P1;durP2;ratioP2;P2;SDS_P1;SDS_P2;PMS_P1;PMS_P2;Temp;Humidity;BMP_temperature;BMP_pressure;BME280_temperature;BME280_humidity;BME280_pressure;Samples;Min_cycle;Max_cycle;Signal;HPM_P1;HPM_P2
2022/04/05 00:00:39;;;;;;;8.10;6.75;;;;;;;;;;5076509;28;20197;-66
2022/04/05 00:03:06;;;;;;;8.93;6.47;;;;;;;;;;5075828;28;20193;-66
2022/04/05 00:05:32;;;;;;;7.15;6.20;;;;;;;;;;5076133;28;20216;-66
2022/04/05 00:07:59;;;;;;;7.85;5.60;;;;;;;;;;5076934;28;20221;-66
2022/04/05 00:10:26;;;;;;;7.00;6.30;;;;;;;;;;5076204;28;20204;-66
2022/04/05 00:12:52;;;;;;;6.50;5.90;;;;;;;;;;5076432;28;20294;-66
2022/04/05 00:15:20;;;;;;;6.07;5.47;;;;;;;;;;5076086;28;20293;-67
2022/04/05 00:17:47;;;;;;;8.75;7.07;;;;;;;;;;5076466;28;20701;-67
2022/04/05 00:20:14;;;;;;;11.77;8.98;;;;;;;;;;5076780;28;20190;-67
2022/04/05 00:22:40;;;;;;;11.50;8.95;;;;;;;;;;5075919;28;20532;-67
2022/04/05 00:25:08;;;;;;;7.90;7.10;;;;;;;;;;5076622;28;20196;-67
2022/04/05 00:27:34;;;;;;;8.65;6.43;;;;;;;;;;5076806;28;20212;-67
2022/04/05 00:30:01;;;;;;;6.32;5.72;;;;;;;;;;5076253;28;20185;-67
2022/04/05 00:32:29;;;;;;;7.00;5.20;;;;;;;;;;5076507;28;20231;-67
2022/04/05 00:34:55;;;;;;;6.97;5.28;;;;;;;;;;5076347;28;20185;-67
2022/04/05 00:37:22;;;;;;;6.38;5.43;;;;;;;;;;5075942;28;20772;-67
2022/04/05 00:39:50;;;;;;;7.93;6.70;;;;;;;;;;5075352;28;20266;-67
2022/04/05 00:42:17;;;;;;;8.55;6.47;;;;;;;;;;5075990;28;20212;-67
2022/04/05 00:44:43;;;;;;;8.85;6.80;;;;;;;;;;5076242;28;20236;-66
2022/04/05 00:47:15;;;;;;;7.97;7.10;;;;;;;;;;5076530;28;20188;-66
2022/04/05 00:49:44;;;;;;;10.38;9.15;;;;;;;;;;5075808;28;20617;-66
2022/04/05 00:52:11;;;;;;;11.02;9.30;;;;;;;;;;5075284;28;20197;-66
2022/04/05 00:54:38;;;;;;;9.88;8.88;;;;;;;;;;5075081;28;20228;-66
2022/04/05 00:57:09;;;;;;;9.10;8.20;;;;;;;;;;5074771;28;20255;-66
2022/04/05 00:59:36;;;;;;;6.88;6.10;;;;;;;;;;5075137;28;20228;-66
2022/04/05 01:02:03;;;;;;;6.75;6.05;;;;;;;;;;5075622;28;20668;-66
2022/04/05 01:04:30;;;;;;;6.40;5.47;;;;;;;;;;5075576;28;20272;-66
2022/04/05 01:06:59;;;;;;;5.00;4.53;;;;;;;;;;5075568;28;20200;-66
2022/04/05 01:09:27;;;;;;;5.18;4.68;;;;;;;;;;5075531;28;20211;-66
2022/04/05 01:11:53;;;;;;;5.93;5.40;;;;;;;;;;5075689;28;20328;-66
2022/04/05 01:14:20;;;;;;;8.68;5.78;;;;;;;;;;5075831;28;20197;-66
2022/04/05 01:16:47;;;;;;;4.85;4.45;;;;;;;;;;5074630;28;20213;-67
2022/04/05 01:19:13;;;;;;;4.65;4.25;;;;;;;;;;5075315;28;20272;-67
2022/04/05 01:21:40;;;;;;;4.50;4.10;;;;;;;;;;5074967;28;20216;-67
2022/04/05 01:24:10;;;;;;;5.15;4.65;;;;;;;;;;5075240;28;20595;-67
2022/04/05 01:26:44;;;;;;;5.05;4.30;;;;;;;;;;5075729;28;20191;-67
2022/04/05 01:29:11;;;;;;;4.97;4.50;;;;;;;;;;5075183;28;20191;-67
2022/04/05 01:31:38;;;;;;;5.88;5.03;;;;;;;;;;5074564;28;20542;-67
2022/04/05 01:34:04;;;;;;;6.53;5.90;;;;;;;;;;5074446;28;20200;-67
2022/04/05 01:36:31;;;;;;;6.50;5.68;;;;;;;;;;5073861;28;20696;-67
2022/04/05 01:38:58;;;;;;;6.50;5.90;;;;;;;;;;5074912;28;20250;-67
2022/04/05 01:41:26;;;;;;;7.40;6.00;;;;;;;;;;5075027;28;20601;-67
2022/04/05 01:43:52;;;;;;;4.53;4.13;;;;;;;;;;5074267;28;20201;-67
2022/04/05 01:46:19;;;;;;;6.32;5.47;;;;;;;;;;5075560;28;20181;-67
2022/04/05 01:48:46;;;;;;;7.13;5.60;;;;;;;;;;5075315;28;20196;-67
2022/04/05 01:51:12;;;;;;;6.40;5.53;;;;;;;;;;5074823;28;20216;-67
2022/04/05 01:53:39;;;;;;;6.68;6.00;;;;;;;;;;5074628;28;20471;-67
2022/04/05 01:56:05;;;;;;;7.22;6.20;;;;;;;;;;5075092;28;20213;-67
2022/04/05 01:58:35;;;;;;;6.20;5.60;;;;;;;;;;5073907;28;20678;-67
2022/04/05 02:01:02;;;;;;;7.07;6.07;;;;;;;;;;5074896;28;20193;-67
2022/04/05 02:03:29;;;;;;;6.85;6.15;;;;;;;;;;5074319;28;20208;-67
2022/04/05 02:05:56;;;;;;;6.60;6.00;;;;;;;;;;5075089;28;20204;-66
2022/04/05 02:08:22;;;;;;;6.20;5.63;;;;;;;;;;5074397;28;20216;-66
2022/04/05 02:10:49;;;;;;;8.95;5.40;;;;;;;;;;5074437;28;20216;-66
2022/04/05 02:13:16;;;;;;;5.40;4.90;;;;;;;;;;5074840;28;20181;-66
2022/04/05 02:15:44;;;;;;;6.45;5.53;;;;;;;;;;5074833;28;20239;-66
2022/04/05 02:18:10;;;;;;;6.47;5.68;;;;;;;;;;5074993;28;20181;-66
2022/04/05 02:20:38;;;;;;;6.85;6.15;;;;;;;;;;5074228;28;20536;-66
2022/04/05 02:23:04;;;;;;;7.28;6.55;;;;;;;;;;5075162;28;20212;-66
2022/04/05 02:25:31;;;;;;;6.55;5.95;;;;;;;;;;5075017;28;20189;-66
2022/04/05 02:27:58;;;;;;;6.60;5.75;;;;;;;;;;5074623;28;20201;-66
2022/04/05 02:30:25;;;;;;;9.07;8.18;;;;;;;;;;5074522;28;20227;-66
2022/04/05 02:32:53;;;;;;;39.67;29.75;;;;;;;;;;5074979;28;20250;-66
2022/04/05 02:35:20;;;;;;;35.25;26.80;;;;;;;;;;5074759;28;20237;-66
2022/04/05 02:37:47;;;;;;;25.05;19.05;;;;;;;;;;5074808;28;20233;-66
2022/04/05 02:40:14;;;;;;;15.40;13.23;;;;;;;;;;5075490;28;20202;-66
2022/04/05 02:42:41;;;;;;;14.00;11.70;;;;;;;;;;5074024;28;20201;-66
2022/04/05 02:45:08;;;;;;;13.90;11.05;;;;;;;;;;5074114;28;20296;-66
2022/04/05 02:47:35;;;;;;;14.38;11.32;;;;;;;;;;5073779;28;20199;-66
2022/04/05 02:50:03;;;;;;;14.95;11.52;;;;;;;;;;5074696;28;20185;-66
2022/04/05 02:52:30;;;;;;;11.93;9.77;;;;;;;;;;5074645;28;20200;-67
2022/04/05 02:54:56;;;;;;;9.05;8.15;;;;;;;;;;5073637;28;20644;-67
2022/04/05 02:57:23;;;;;;;7.38;6.45;;;;;;;;;;5074547;28;20296;-67
2022/04/05 02:59:49;;;;;;;7.90;6.68;;;;;;;;;;5074669;28;20273;-67
2022/04/05 03:02:16;;;;;;;8.20;6.63;;;;;;;;;;5074582;28;20193;-67
2022/04/05 03:04:43;;;;;;;11.23;9.00;;;;;;;;;;5074271;28;20661;-67
2022/04/05 03:07:11;;;;;;;11.23;9.38;;;;;;;;;;5074301;28;20212;-67
2022/04/05 03:09:37;;;;;;;10.02;9.02;;;;;;;;;;5074439;28;20185;-67
2022/04/05 03:12:04;;;;;;;12.20;8.02;;;;;;;;;;5074115;28;20177;-67
2022/04/05 03:14:31;;;;;;;9.23;8.02;;;;;;;;;;5076769;28;20598;-67
2022/04/05 03:16:57;;;;;;;9.48;8.35;;;;;;;;;;5077581;28;20220;-67
2022/04/05 03:19:24;;;;;;;11.20;8.82;;;;;;;;;;5076693;28;20197;-67
2022/04/05 03:21:50;;;;;;;10.05;8.63;;;;;;;;;;5076914;28;20228;-67
2022/04/05 03:24:18;;;;;;;10.27;8.80;;;;;;;;;;5077742;28;20260;-67
2022/04/05 03:26:45;;;;;;;11.05;9.38;;;;;;;;;;5076973;28;20235;-67
2022/04/05 03:29:12;;;;;;;10.23;9.18;;;;;;;;;;5078123;28;20204;-67
2022/04/05 03:31:38;;;;;;;12.10;9.70;;;;;;;;;;5077165;28;20193;-67
2022/04/05 03:34:05;;;;;;;11.05;9.68;;;;;;;;;;5076847;28;20667;-67
2022/04/05 03:36:31;;;;;;;11.60;10.27;;;;;;;;;;5076456;28;20237;-67
2022/04/05 03:38:58;;;;;;;10.98;9.88;;;;;;;;;;5077670;28;20212;-67
2022/04/05 03:41:26;;;;;;;10.85;9.80;;;;;;;;;;5077707;28;20213;-67
2022/04/05 03:43:53;;;;;;;10.35;9.02;;;;;;;;;;5076582;28;20201;-67
2022/04/05 03:46:19;;;;;;;10.43;9.20;;;;;;;;;;5077162;28;20555;-67
2022/04/05 03:48:46;;;;;;;9.60;8.60;;;;;;;;;;5077524;28;20200;-67
2022/04/05 03:51:13;;;;;;;10.05;9.05;;;;;;;;;;5077454;28;20291;-67
2022/04/05 03:53:39;;;;;;;10.45;9.38;;;;;;;;;;5077557;28;20185;-68
2022/04/05 03:56:06;;;;;;;8.90;8.02;;;;;;;;;;5076577;28;20201;-67
2022/04/05 03:58:34;;;;;;;9.35;8.32;;;;;;;;;;5076575;28;20209;-67
2022/04/05 04:01:00;;;;;;;9.13;8.23;;;;;;;;;;5077107;28;20282;-66
2022/04/05 04:03:27;;;;;;;12.15;8.50;;;;;;;;;;5075546;28;20296;-66
2022/04/05 04:05:54;;;;;;;8.95;8.05;;;;;;;;;;5076658;28;20231;-66
2022/04/05 04:08:20;;;;;;;9.95;8.95;;;;;;;;;;5076252;28;20254;-66
2022/04/05 04:10:48;;;;;;;9.02;8.13;;;;;;;;;;5076940;28;20236;-66
2022/04/05 04:13:15;;;;;;;8.80;7.88;;;;;;;;;;5076760;28;20192;-66
2022/04/05 04:15:43;;;;;;;9.10;8.27;;;;;;;;;;5076303;28;20544;-66
2022/04/05 04:18:10;;;;;;;8.70;7.80;;;;;;;;;;5076907;28;20213;-66
2022/04/05 04:20:38;;;;;;;9.68;8.18;;;;;;;;;;5076760;28;20228;-66
2022/04/05 04:23:05;;;;;;;12.82;8.55;;;;;;;;;;5076915;28;20231;-66
2022/04/05 04:25:31;;;;;;;9.48;8.40;;;;;;;;;;5075481;28;20528;-66
2022/04/05 04:27:58;;;;;;;9.88;8.13;;;;;;;;;;5076277;28;20262;-66
2022/04/05 04:30:24;;;;;;;11.05;8.10;;;;;;;;;;5075698;28;20197;-66
2022/04/05 04:32:53;;;;;;;10.05;7.45;;;;;;;;;;5075637;28;20224;-66
2022/04/05 04:35:20;;;;;;;12.15;8.48;;;;;;;;;;5075415;28;20248;-66
2022/04/05 04:37:47;;;;;;;11.00;9.43;;;;;;;;;;5076411;28;20318;-66
2022/04/05 04:40:14;;;;;;;10.05;8.20;;;;;;;;;;5076288;28;20221;-67
2022/04/05 04:42:40;;;;;;;11.07;7.95;;;;;;;;;;5076738;28;20186;-67
2022/04/05 04:45:07;;;;;;;12.13;8.13;;;;;;;;;;5075187;28;20198;-67
2022/04/05 04:47:34;;;;;;;9.60;8.52;;;;;;;;;;5075526;28;20200;-67
2022/04/05 04:50:02;;;;;;;27.48;17.77;;;;;;;;;;5075351;28;20232;-67
2022/04/05 04:52:28;;;;;;;18.42;15.60;;;;;;;;;;5075560;28;20207;-67
2022/04/05 04:54:55;;;;;;;18.52;14.85;;;;;;;;;;5076239;28;20201;-67
2022/04/05 04:57:23;;;;;;;18.48;14.75;;;;;;;;;;5074710;28;20251;-67
2022/04/05 04:59:50;;;;;;;18.15;15.57;;;;;;;;;;5075009;28;20203;-68
2022/04/05 05:02:16;;;;;;;18.23;15.23;;;;;;;;;;5075569;28;20232;-68
2022/04/05 05:04:43;;;;;;;16.80;14.77;;;;;;;;;;5075312;28;20513;-68
2022/04/05 05:07:14;;;;;;;19.02;14.30;;;;;;;;;;5075822;28;20216;-68
2022/04/05 05:09:40;;;;;;;15.77;13.98;;;;;;;;;;5075763;28;20192;-68
2022/04/05 05:12:10;;;;;;;17.80;14.20;;;;;;;;;;5075548;28;20185;-68
2022/04/05 05:14:36;;;;;;;19.50;15.32;;;;;;;;;;5075727;28;20203;-68
2022/04/05 05:17:03;;;;;;;17.42;15.55;;;;;;;;;;5074807;28;20209;-67
2022/04/05 05:19:30;;;;;;;20.15;16.02;;;;;;;;;;5074859;28;20193;-67
2022/04/05 05:21:56;;;;;;;20.10;17.60;;;;;;;;;;5075324;28;20600;-66
2022/04/05 05:24:24;;;;;;;19.10;17.20;;;;;;;;;;5074870;28;20211;-66
2022/04/05 05:26:51;;;;;;;16.80;15.00;;;;;;;;;;5075587;28;20248;-66
2022/04/05 05:29:17;;;;;;;19.00;16.10;;;;;;;;;;5074444;28;20193;-66
2022/04/05 05:31:44;;;;;;;17.38;14.63;;;;;;;;;;5074886;28;20197;-66
2022/04/05 05:34:11;;;;;;;16.15;14.35;;;;;;;;;;5075672;28;20216;-67
2022/04/05 05:36:37;;;;;;;19.00;14.52;;;;;;;;;;5074555;28;20283;-67
2022/04/05 05:39:04;;;;;;;15.35;13.85;;;;;;;;;;5074684;28;20208;-67
2022/04/05 05:41:32;;;;;;;20.50;17.48;;;;;;;;;;5074616;28;20201;-66
2022/04/05 05:43:59;;;;;;;22.40;17.75;;;;;;;;;;5074533;28;20235;-67
2022/04/05 05:46:25;;;;;;;19.15;17.17;;;;;;;;;;5075701;28;20228;-66
2022/04/05 05:48:52;;;;;;;18.38;16.42;;;;;;;;;;5075215;28;20203;-66
2022/04/05 05:51:18;;;;;;;20.60;15.70;;;;;;;;;;5074434;28;20227;-66
2022/04/05 05:53:45;;;;;;;19.33;16.92;;;;;;;;;;5075266;28;20185;-66
2022/04/05 05:56:12;;;;;;;19.33;15.60;;;;;;;;;;5075263;28;20277;-66
2022/04/05 05:58:39;;;;;;;16.52;14.02;;;;;;;;;;5074423;28;20305;-64
2022/04/05 06:01:06;;;;;;;21.30;19.33;;;;;;;;;;5073235;28;20523;-63
2022/04/05 06:03:33;;;;;;;22.48;20.08;;;;;;;;;;5074060;28;20197;-63
2022/04/05 06:05:59;;;;;;;18.00;16.13;;;;;;;;;;5075202;28;20181;-63
2022/04/05 06:08:26;;;;;;;20.33;16.63;;;;;;;;;;5074951;28;20503;-63
2022/04/05 06:10:53;;;;;;;20.63;18.58;;;;;;;;;;5074161;28;20236;-64
2022/04/05 06:13:21;;;;;;;15.55;14.07;;;;;;;;;;5074467;28;20193;-63
2022/04/05 06:15:49;;;;;;;16.70;15.20;;;;;;;;;;5074698;28;20200;-63
2022/04/05 06:18:15;;;;;;;15.32;13.88;;;;;;;;;;5073975;28;20220;-63
2022/04/05 06:20:42;;;;;;;16.45;14.82;;;;;;;;;;5074203;28;20229;-63
2022/04/05 06:23:08;;;;;;;14.93;13.38;;;;;;;;;;5075210;28;20185;-63
2022/04/05 06:25:37;;;;;;;16.05;14.50;;;;;;;;;;5074058;28;20235;-64
2022/04/05 06:28:06;;;;;;;18.13;16.23;;;;;;;;;;5074995;28;20185;-64
2022/04/05 06:30:33;;;;;;;19.05;17.05;;;;;;;;;;5074862;28;20256;-64
2022/04/05 06:33:09;;;;;;;17.80;16.05;;;;;;;;;;5075024;28;20197;-64
2022/04/05 06:35:36;;;;;;;16.83;15.10;;;;;;;;;;5073741;28;20232;-64
2022/04/05 06:38:03;;;;;;;17.02;15.32;;;;;;;;;;5073894;28;20308;-64
2022/04/05 06:40:30;;;;;;;17.50;15.80;;;;;;;;;;5073817;28;20200;-64
2022/04/05 06:42:56;;;;;;;17.38;15.68;;;;;;;;;;5074532;28;20224;-64
2022/04/05 06:45:24;;;;;;;17.25;15.63;;;;;;;;;;5073945;28;20205;-63
2022/04/05 06:47:51;;;;;;;18.10;16.35;;;;;;;;;;5076495;28;20272;-64
2022/04/05 06:50:24;;;;;;;15.75;14.15;;;;;;;;;;5077287;28;20224;-64
2022/04/05 06:52:51;;;;;;;14.43;13.02;;;;;;;;;;5077718;28;20235;-63
2022/04/05 06:55:17;;;;;;;14.50;13.10;;;;;;;;;;5077416;28;20288;-64
2022/04/05 06:57:44;;;;;;;14.60;13.13;;;;;;;;;;5078516;28;20215;-64
2022/04/05 07:00:12;;;;;;;14.85;13.50;;;;;;;;;;5077608;28;20292;-63
2022/04/05 07:02:39;;;;;;;15.20;13.82;;;;;;;;;;5078409;28;20225;-63
2022/04/05 07:05:06;;;;;;;14.07;12.68;;;;;;;;;;5077537;28;20223;-64
2022/04/05 07:07:34;;;;;;;11.45;10.27;;;;;;;;;;5078307;28;20201;-64
2022/04/05 07:10:01;;;;;;;11.15;10.15;;;;;;;;;;5077951;28;20283;-64
2022/04/05 07:12:27;;;;;;;10.43;9.43;;;;;;;;;;5079076;28;20193;-63
2022/04/05 07:14:54;;;;;;;9.70;8.65;;;;;;;;;;5078697;28;20256;-63
2022/04/05 07:17:21;;;;;;;10.05;8.30;;;;;;;;;;5077259;28;20278;-63
2022/04/05 07:19:47;;;;;;;11.68;9.00;;;;;;;;;;5077232;28;20208;-64
2022/04/05 07:22:14;;;;;;;11.35;9.63;;;;;;;;;;5077759;28;20516;-64
2022/04/05 07:24:42;;;;;;;10.60;9.57;;;;;;;;;;5077225;28;20203;-64
2022/04/05 07:27:09;;;;;;;12.00;10.77;;;;;;;;;;5077959;28;20224;-64
2022/04/05 07:29:35;;;;;;;12.80;11.52;;;;;;;;;;5076821;28;20197;-64
2022/04/05 07:32:02;;;;;;;14.85;12.23;;;;;;;;;;5077479;28;20191;-65
2022/04/05 07:34:28;;;;;;;14.07;12.77;;;;;;;;;;5076823;28;20212;-64
2022/04/05 07:36:55;;;;;;;12.75;11.45;;;;;;;;;;5077286;28;20250;-64
2022/04/05 07:39:23;;;;;;;11.63;10.60;;;;;;;;;;5078000;28;20205;-64
2022/04/05 07:41:51;;;;;;;12.32;11.02;;;;;;;;;;5077097;28;20292;-65
2022/04/05 07:44:18;;;;;;;11.70;10.60;;;;;;;;;;5077889;28;20201;-64
2022/04/05 07:46:45;;;;;;;10.63;9.70;;;;;;;;;;5076697;28;20208;-63
2022/04/05 07:49:11;;;;;;;9.88;8.88;;;;;;;;;;5077251;28;20588;-64
2022/04/05 07:51:38;;;;;;;10.68;9.57;;;;;;;;;;5077423;28;20186;-64
2022/04/05 07:54:05;;;;;;;11.15;9.73;;;;;;;;;;5077590;28;20270;-67
2022/04/05 07:56:32;;;;;;;11.43;9.63;;;;;;;;;;5077322;28;20211;-67
2022/04/05 07:59:01;;;;;;;9.50;8.60;;;;;;;;;;5075512;28;20218;-68
2022/04/05 08:01:29;;;;;;;10.23;9.13;;;;;;;;;;5076745;28;20193;-64
2022/04/05 08:03:56;;;;;;;10.07;8.63;;;;;;;;;;5077224;28;20192;-66
2022/04/05 08:06:23;;;;;;;8.77;7.93;;;;;;;;;;5077148;28;20250;-62
2022/04/05 08:08:51;;;;;;;9.10;8.38;;;;;;;;;;5077493;28;20191;-63
2022/04/05 08:11:18;;;;;;;9.15;8.18;;;;;;;;;;5076838;28;20185;-64
2022/04/05 08:13:45;;;;;;;8.85;7.97;;;;;;;;;;5076991;28;20195;-64
2022/04/05 08:16:13;;;;;;;8.90;8.10;;;;;;;;;;5076615;28;20522;-63
2022/04/05 08:18:39;;;;;;;8.75;7.90;;;;;;;;;;5075845;28;20262;-63
2022/04/05 08:21:06;;;;;;;10.88;7.63;;;;;;;;;;5077027;28;20189;-64
2022/04/05 08:23:33;;;;;;;8.90;8.00;;;;;;;;;;5076025;28;20220;-65
2022/04/05 08:25:59;;;;;;;8.43;7.50;;;;;;;;;;5076778;28;20204;-64
2022/04/05 08:28:26;;;;;;;7.25;6.65;;;;;;;;;;5075890;28;20220;-64
2022/04/05 08:30:53;;;;;;;8.18;7.40;;;;;;;;;;5075662;28;20193;-64
2022/04/05 08:33:21;;;;;;;8.30;7.60;;;;;;;;;;5075852;28;20205;-64
2022/04/05 08:35:47;;;;;;;8.32;7.57;;;;;;;;;;5075675;28;20243;-65
2022/04/05 08:38:14;;;;;;;7.50;6.80;;;;;;;;;;5075635;28;20221;-65
2022/04/05 08:40:40;;;;;;;7.40;6.70;;;;;;;;;;5076564;28;20185;-65
2022/04/05 08:43:07;;;;;;;7.20;6.53;;;;;;;;;;5075740;28;20201;-65
2022/04/05 08:45:34;;;;;;;7.25;6.65;;;;;;;;;;5076446;28;20196;-64
2022/04/05 08:48:00;;;;;;;6.93;6.43;;;;;;;;;;5076372;28;20177;-65
2022/04/05 08:50:30;;;;;;;7.63;6.65;;;;;;;;;;5075284;28;20207;-64
2022/04/05 08:52:59;;;;;;;7.63;6.95;;;;;;;;;;5075450;28;20224;-64
2022/04/05 08:55:26;;;;;;;6.85;6.35;;;;;;;;;;5075154;28;20640;-65
2022/04/05 08:57:52;;;;;;;6.43;5.85;;;;;;;;;;5075246;28;20307;-64
2022/04/05 09:00:21;;;;;;;7.88;6.80;;;;;;;;;;5076010;28;20201;-64
2022/04/05 09:02:55;;;;;;;7.50;6.68;;;;;;;;;;5075629;28;20262;-64
2022/04/05 09:05:36;;;;;;;6.82;6.22;;;;;;;;;;5075999;28;20199;-64
2022/04/05 09:08:17;;;;;;;7.65;7.03;;;;;;;;;;5075348;28;20239;-65
2022/04/05 09:10:45;;;;;;;6.95;6.35;;;;;;;;;;5075483;28;20193;-65
2022/04/05 09:13:12;;;;;;;6.32;5.72;;;;;;;;;;5076044;28;20186;-64
2022/04/05 09:15:40;;;;;;;5.93;5.43;;;;;;;;;;5074689;28;20232;-65
2022/04/05 09:18:07;;;;;;;4.70;4.25;;;;;;;;;;5074967;28;20220;-65
2022/04/05 09:20:44;;;;;;;3.65;3.35;;;;;;;;;;5076272;28;20220;-64
2022/04/05 09:23:22;;;;;;;4.63;4.20;;;;;;;;;;5074874;28;20205;-64
2022/04/05 09:25:54;;;;;;;5.35;4.85;;;;;;;;;;5075846;28;20203;-64
2022/04/05 09:28:26;;;;;;;6.03;5.50;;;;;;;;;;5075564;28;20287;-64
2022/04/05 09:30:52;;;;;;;6.45;5.55;;;;;;;;;;5075407;28;20256;-64
2022/04/05 09:33:19;;;;;;;8.15;5.50;;;;;;;;;;5076487;28;20242;-65
2022/04/05 09:35:47;;;;;;;8.68;5.68;;;;;;;;;;5074881;28;20256;-65
2022/04/05 09:38:15;;;;;;;5.88;5.28;;;;;;;;;;5075088;28;20213;-65
2022/04/05 09:40:43;;;;;;;6.50;5.82;;;;;;;;;;5074993;28;20276;-65
2022/04/05 09:43:12;;;;;;;8.23;6.80;;;;;;;;;;5074719;28;20601;-65
2022/04/05 09:45:42;;;;;;;6.30;5.65;;;;;;;;;;5074618;28;20613;-65
2022/04/05 09:48:09;;;;;;;6.00;5.50;;;;;;;;;;5074498;28;20197;-65
2022/04/05 09:50:56;;;;;;;6.72;6.18;;;;;;;;;;5075428;28;20200;-65
2022/04/05 09:53:24;;;;;;;6.90;6.30;;;;;;;;;;5074349;28;20204;-64
2022/04/05 09:56:01;;;;;;;6.43;5.82;;;;;;;;;;5075301;28;20221;-64
2022/04/05 09:58:28;;;;;;;8.10;5.88;;;;;;;;;;5074556;28;20288;-65
2022/04/05 10:01:03;;;;;;;6.40;5.78;;;;;;;;;;5075577;28;20228;-65
2022/04/05 10:03:29;;;;;;;7.22;6.60;;;;;;;;;;5075404;28;20188;-65
2022/04/05 10:05:56;;;;;;;6.32;5.82;;;;;;;;;;5074550;28;20225;-64
2022/04/05 10:08:24;;;;;;;7.45;6.70;;;;;;;;;;5074900;28;20239;-64
2022/04/05 10:10:51;;;;;;;6.63;5.97;;;;;;;;;;5075020;28;20267;-64
2022/04/05 10:13:17;;;;;;;7.07;6.22;;;;;;;;;;5075196;28;20243;-66
2022/04/05 10:15:47;;;;;;;6.30;5.25;;;;;;;;;;5076664;28;20211;-65
2022/04/05 10:18:15;;;;;;;7.15;5.88;;;;;;;;;;5076098;28;20248;-65
2022/04/05 10:20:42;;;;;;;5.70;5.30;;;;;;;;;;5075104;28;20213;-65
2022/04/05 10:23:09;;;;;;;6.20;5.57;;;;;;;;;;5077254;28;20193;-65
2022/04/05 10:25:39;;;;;;;6.10;5.57;;;;;;;;;;5079077;28;20224;-67
2022/04/05 10:28:06;;;;;;;7.53;5.70;;;;;;;;;;5079170;28;20238;-66
2022/04/05 10:30:38;;;;;;;6.80;6.18;;;;;;;;;;5079013;28;20181;-66
2022/04/05 10:33:06;;;;;;;6.53;5.93;;;;;;;;;;5077912;28;20200;-67
2022/04/05 10:35:37;;;;;;;5.70;5.20;;;;;;;;;;5079100;28;20271;-66
2022/04/05 10:38:13;;;;;;;8.15;7.00;;;;;;;;;;5077748;28;20208;-66
2022/04/05 10:40:41;;;;;;;7.25;6.60;;;;;;;;;;5078428;28;20249;-66
2022/04/05 10:43:18;;;;;;;7.47;6.88;;;;;;;;;;5078448;28;20624;-66
2022/04/05 10:45:45;;;;;;;7.10;6.50;;;;;;;;;;5078825;28;20271;-66
2022/04/05 10:48:13;;;;;;;6.75;6.15;;;;;;;;;;5078760;28;20192;-66
2022/04/05 10:50:40;;;;;;;6.25;5.75;;;;;;;;;;5078719;28;20193;-66
2022/04/05 10:53:14;;;;;;;6.32;5.72;;;;;;;;;;5077901;28;20663;-66
2022/04/05 10:56:02;;;;;;;5.90;5.40;;;;;;;;;;5077680;28;20196;-66
2022/04/05 10:58:30;;;;;;;5.88;5.38;;;;;;;;;;5073142;28;20244;-66
2022/04/05 11:01:11;;;;;;;6.95;5.35;;;;;;;;;;5078529;28;20213;-66
2022/04/05 11:03:38;;;;;;;7.60;5.50;;;;;;;;;;5077971;28;20224;-65
2022/04/05 11:06:05;;;;;;;5.60;4.85;;;;;;;;;;5078182;28;20233;-65
2022/04/05 11:08:32;;;;;;;6.40;5.80;;;;;;;;;;5077397;28;20670;-65
2022/04/05 11:11:00;;;;;;;6.20;5.60;;;;;;;;;;5078570;28;20189;-65
2022/04/05 11:13:35;;;;;;;5.85;5.30;;;;;;;;;;5078322;28;20228;-66
2022/04/05 11:16:03;;;;;;;6.50;5.72;;;;;;;;;;5077315;28;20196;-66
2022/04/05 11:18:30;;;;;;;5.63;5.10;;;;;;;;;;5077884;28;20185;-66
2022/04/05 11:20:58;;;;;;;4.85;4.45;;;;;;;;;;5078132;28;20189;-65
2022/04/05 11:23:41;;;;;;;4.82;4.10;;;;;;;;;;5078037;28;20246;-65
2022/04/05 11:26:28;;;;;;;5.18;4.22;;;;;;;;;;5078040;28;20209;-66
2022/04/05 11:28:57;;;;;;;5.70;4.25;;;;;;;;;;5077942;28;20216;-66
2022/04/05 11:31:27;;;;;;;3.90;3.60;;;;;;;;;;5077276;28;20303;-66
2022/04/05 11:33:54;;;;;;;4.28;3.60;;;;;;;;;;5075883;28;20193;-65
2022/04/05 11:36:23;;;;;;;4.00;3.60;;;;;;;;;;5076541;28;20303;-65
2022/04/05 11:38:50;;;;;;;4.18;3.80;;;;;;;;;;5076846;28;20557;-65
2022/04/05 11:41:19;;;;;;;5.47;3.95;;;;;;;;;;5077644;28;20281;-66
2022/04/05 11:43:47;;;;;;;6.25;4.47;;;;;;;;;;5077667;28;20246;-66
2022/04/05 11:46:16;;;;;;;5.20;4.35;;;;;;;;;;5077980;28;20193;-66
2022/04/05 11:48:44;;;;;;;4.35;3.95;;;;;;;;;;5076659;28;20285;-66
2022/04/05 11:51:11;;;;;;;5.35;4.13;;;;;;;;;;5077672;28;20590;-66
2022/04/05 11:53:38;;;;;;;3.92;3.03;;;;;;;;;;5077676;28;20223;-65
2022/04/05 11:56:06;;;;;;;3.38;3.08;;;;;;;;;;5076723;28;20208;-66
2022/04/05 11:58:34;;;;;;;4.85;3.47;;;;;;;;;;5077353;28;20213;-66
2022/04/05 12:01:01;;;;;;;4.38;3.60;;;;;;;;;;5076606;28;20428;-66
2022/04/05 12:03:29;;;;;;;3.38;2.58;;;;;;;;;;5077484;28;20213;-68
2022/04/05 12:05:56;;;;;;;3.53;2.90;;;;;;;;;;5077339;28;20185;-68
2022/04/05 12:08:23;;;;;;;4.45;3.10;;;;;;;;;;5076572;28;20458;-68
2022/04/05 12:10:49;;;;;;;3.72;2.88;;;;;;;;;;5077345;28;20185;-68
2022/04/05 12:13:26;;;;;;;4.10;2.85;;;;;;;;;;5076117;28;20446;-68
2022/04/05 12:15:58;;;;;;;2.75;2.45;;;;;;;;;;5076210;28;20442;-68
2022/04/05 12:18:26;;;;;;;3.25;2.90;;;;;;;;;;5075867;28;20531;-68
2022/04/05 12:21:01;;;;;;;2.58;2.30;;;;;;;;;;5075983;28;20907;-68
2022/04/05 12:23:31;;;;;;;2.60;2.40;;;;;;;;;;5075720;28;20847;-68
2022/04/05 12:26:02;;;;;;;3.10;2.45;;;;;;;;;;5076159;28;20195;-68
2022/04/05 12:28:28;;;;;;;3.42;2.50;;;;;;;;;;5075329;28;20431;-68
2022/04/05 12:31:03;;;;;;;2.38;2.17;;;;;;;;;;5076571;28;20511;-66
2022/04/05 12:33:30;;;;;;;1.90;1.80;;;;;;;;;;5076133;28;20189;-66
2022/04/05 12:35:56;;;;;;;2.20;1.80;;;;;;;;;;5076196;28;20240;-66
2022/04/05 12:38:24;;;;;;;2.10;2.00;;;;;;;;;;5076926;28;20181;-67
2022/04/05 12:40:51;;;;;;;3.30;2.00;;;;;;;;;;5075693;28;20224;-66
2022/04/05 12:43:19;;;;;;;2.17;1.98;;;;;;;;;;5076427;28;20241;-66
2022/04/05 12:45:46;;;;;;;1.95;1.85;;;;;;;;;;5075554;28;20258;-67
2022/04/05 12:48:12;;;;;;;2.10;1.90;;;;;;;;;;5075794;28;20270;-65
2022/04/05 12:50:43;;;;;;;2.67;2.13;;;;;;;;;;5075339;28;20635;-65
2022/04/05 12:53:11;;;;;;;2.15;2.00;;;;;;;;;;5075310;28;20205;-68
2022/04/05 12:55:39;;;;;;;2.28;2.08;;;;;;;;;;5076033;28;20621;-66
2022/04/05 12:58:07;;;;;;;2.03;1.80;;;;;;;;;;5075109;28;20225;-66
2022/04/05 13:00:42;;;;;;;2.30;1.83;;;;;;;;;;5076355;28;20212;-66
2022/04/05 13:03:10;;;;;;;2.33;2.10;;;;;;;;;;5076255;28;20246;-66
2022/04/05 13:08:28;;;;;;;2.40;2.20;;;;;;;;;;5075876;28;20173;-65
2022/04/05 13:10:56;;;;;;;2.25;2.10;;;;;;;;;;5075199;28;20212;-67
2022/04/05 13:13:24;;;;;;;2.40;1.90;;;;;;;;;;5075868;28;20231;-69
2022/04/05 13:15:52;;;;;;;3.45;1.90;;;;;;;;;;5075751;28;20200;-65
2022/04/05 13:18:18;;;;;;;2.10;2.00;;;;;;;;;;5075144;28;20301;-65
2022/04/05 13:20:57;;;;;;;3.55;2.40;;;;;;;;;;5074939;28;20217;-65
2022/04/05 13:23:26;;;;;;;3.88;2.20;;;;;;;;;;5075026;28;20214;-65
2022/04/05 13:25:52;;;;;;;2.20;2.00;;;;;;;;;;5075981;28;20197;-66
2022/04/05 13:28:20;;;;;;;2.92;2.08;;;;;;;;;;5075386;28;20529;-65
2022/04/05 13:30:47;;;;;;;2.20;1.88;;;;;;;;;;5075692;28;20199;-65
2022/04/05 13:33:14;;;;;;;2.97;2.20;;;;;;;;;;5075348;28;20208;-66
2022/04/05 13:35:41;;;;;;;2.05;1.90;;;;;;;;;;5075013;28;20236;-66
2022/04/05 13:38:08;;;;;;;2.20;1.98;;;;;;;;;;5075625;28;20186;-66
2022/04/05 13:40:34;;;;;;;3.10;2.80;;;;;;;;;;5074902;28;20257;-66
2022/04/05 13:43:01;;;;;;;2.50;2.30;;;;;;;;;;5075780;28;20181;-67
2022/04/05 13:45:31;;;;;;;2.67;2.05;;;;;;;;;;5075664;28;20185;-66
2022/04/05 13:47:57;;;;;;;2.63;2.10;;;;;;;;;;5074893;28;20208;-66
2022/04/05 13:50:24;;;;;;;3.15;2.45;;;;;;;;;;5074500;28;20232;-66
2022/04/05 13:52:51;;;;;;;3.42;2.72;;;;;;;;;;5075376;28;20227;-67
2022/04/05 13:55:17;;;;;;;3.72;2.67;;;;;;;;;;5075517;28;20219;-67
2022/04/05 13:57:44;;;;;;;4.88;2.40;;;;;;;;;;5074748;28;20204;-66
2022/04/05 14:00:11;;;;;;;2.90;2.42;;;;;;;;;;5075045;28;20588;-66
2022/04/05 14:02:39;;;;;;;2.22;2.03;;;;;;;;;;5074734;28;20200;-66
2022/04/05 14:05:07;;;;;;;2.30;2.10;;;;;;;;;;5074570;28;20196;-66
2022/04/05 14:07:33;;;;;;;2.38;2.00;;;;;;;;;;5074798;28;20209;-66
2022/04/05 14:10:00;;;;;;;2.40;2.20;;;;;;;;;;5073898;28;20224;-66
2022/04/05 14:12:27;;;;;;;3.97;2.65;;;;;;;;;;5075413;28;20500;-67
2022/04/05 14:14:53;;;;;;;2.35;2.15;;;;;;;;;;5074871;28;20239;-66
2022/04/05 14:17:20;;;;;;;2.47;2.22;;;;;;;;;;5075346;28;20231;-66
2022/04/05 14:19:48;;;;;;;2.60;2.40;;;;;;;;;;5074224;28;20212;-66
2022/04/05 14:22:15;;;;;;;2.53;2.08;;;;;;;;;;5074581;28;20207;-66
2022/04/05 14:24:41;;;;;;;2.47;2.28;;;;;;;;;;5074696;28;20189;-64
2022/04/05 14:27:08;;;;;;;2.42;2.05;;;;;;;;;;5075187;28;20215;-65
2022/04/05 14:29:35;;;;;;;2.50;2.22;;;;;;;;;;5073994;28;20196;-65
2022/04/05 14:32:02;;;;;;;2.70;2.50;;;;;;;;;;5073931;28;20193;-66
2022/04/05 14:34:28;;;;;;;2.60;2.40;;;;;;;;;;5074549;28;20205;-66
2022/04/05 14:36:56;;;;;;;3.17;2.60;;;;;;;;;;5073641;28;20285;-66
2022/04/05 14:39:23;;;;;;;2.50;2.28;;;;;;;;;;5073670;28;20232;-66
2022/04/05 14:41:50;;;;;;;4.18;3.20;;;;;;;;;;5074208;28;20193;-66